Create Tblcommutelog Verified Points Advance Search
| # | Trip ID | Id Commuter | Trip Date | Trip Num | Current Lat | Current Lng | Delta Distance | Current Time | Activity | Activity Confidence | Current Speed | |
|---|---|---|---|---|---|---|---|---|---|---|---|---|
| 73041 | 250624_785264_16653381_1604 | 785264 | (not set) | (not set) | 38.8991588573 | -77.44053078764 | 29.1 | 2025-06-24 21:21:27.421 | in_vehicle | 100 | 2.5391829910503 | |
| 73042 | 250624_785985_16654240_1639 | 785985 | (not set) | (not set) | 39.37395066223 | -76.626363696245 | 6.9418 | 2025-06-24 21:21:28.231 | unknown | 100 | 4.9755469525334 | |
| 73043 | 250624_763853_16630707_1656 | 763853 | (not set) | (not set) | 38.896961214912 | -77.16683171539 | 3.5091 | 2025-06-24 21:21:28.813 | still | 33 | -0.44703925898772 | |
| 73044 | 250624_785175_16653273_1700 | 785175 | (not set) | (not set) | 38.92530155678 | -77.032426214052 | 6.9362 | 2025-06-24 21:21:29.192 | on_foot | 100 | 0.63926614035245 | |
| 73045 | 250624_784389_16652315_1633 | 784389 | (not set) | (not set) | 38.929780266209 | -77.204630767676 | 12.5403 | 2025-06-24 21:21:30.333 | in_vehicle | 100 | 11.332445215339 | |
| 73046 | 250624_776960_16644495_1622 | 776960 | (not set) | (not set) | 39.284024747918 | -76.669713119393 | 36.0053 | 2025-06-24 21:21:31.282 | in_vehicle | 100 | 8.3506933578907 | |
| 73047 | 250624_783292_16651014_1605 | 783292 | (not set) | (not set) | 38.898681769143 | -77.032265551319 | 10.7425 | 2025-06-24 21:21:31.414 | in_vehicle | 100 | -0.44703925898772 | |
| 73048 | 250624_785987_16654242_1636 | 785987 | (not set) | (not set) | 39.315170283333 | -76.642830833333 | 23.3366 | 2025-06-24 21:21:33.691 | in_vehicle | 100 | 0 | |
| 73049 | 250624_711925_16573309_1719 | 711925 | (not set) | (not set) | 38.854952192554 | -76.996008347515 | 0.0644 | 2025-06-24 21:21:46.762 | on_foot | 100 | 0.089407851797545 | |
| 73050 | 250624_781273_16648948_1700 | 781273 | (not set) | (not set) | 38.924562507507 | -77.052420385629 | 0 | 2025-06-24 21:21:49.261 | still | 33 | -0.44703925898772 | |
| 73051 | 250624_781273_16648948_1700 | 781273 | (not set) | (not set) | 38.924603556769 | -77.052443901779 | 2.1273 | 2025-06-24 21:21:49.269 | still | 33 | -0.44703925898772 | |
| 73052 | 250624_769852_16636925_1654 | 769852 | (not set) | (not set) | 39.012738836736 | -77.200940463804 | 7.4167 | 2025-06-24 21:21:49.309 | in_vehicle | 100 | 2.2039035468095 | |
| 73053 | 250624_763853_16630707_1656 | 763853 | (not set) | (not set) | 38.899509906335 | -77.182569216857 | 5.7548 | 2025-06-24 21:21:49.312 | still | 33 | 5.9187997889975 | |
| 73054 | 250624_785147_16653236_1634 | 785147 | (not set) | (not set) | 38.97644625 | -77.809479983333 | 23.4727 | 2025-06-24 21:21:49.469 | in_vehicle | 100 | 10.326606882616 | |
| 73055 | 250624_773187_16640516_1706 | 773187 | (not set) | (not set) | 38.842547763873 | -77.049296376499 | 3.2923 | 2025-06-24 21:21:50.271 | in_vehicle | 100 | 7.2599175659606 | |
| 73056 | 250624_763853_16630707_1656 | 763853 | (not set) | (not set) | 38.900658942073 | -77.188334220658 | 6.0755 | 2025-06-24 21:21:51.285 | still | 33 | -0.44703925898772 | |
| 73057 | 250624_763853_16630707_1656 | 763853 | (not set) | (not set) | 38.900658942073 | -77.188334220658 | 5.7548 | 2025-06-24 21:21:51.345 | still | 33 | -0.44703925898772 | |
| 73058 | 250624_785678_16653843_1447 | 785678 | (not set) | (not set) | 38.87681687443 | -77.443836073953 | 35.8309 | 2025-06-24 21:21:52.026 | in_vehicle | 100 | 3.3349128720484 | |
| 73059 | 250624_768637_16635615_1656 | 768637 | (not set) | (not set) | 38.895417663117 | -76.994720094538 | 1.0609 | 2025-06-24 21:21:52.446 | on_foot | 100 | 0.67055888848159 | |
| 73060 | 250624_784389_16652315_1633 | 784389 | (not set) | (not set) | 38.933136832023 | -77.210133982958 | 12.9169 | 2025-06-24 21:21:54.257 | in_vehicle | 100 | 11.587257592962 |